sensor_id;sensor_type;location;lat;lon;timestamp;temperature;humidity
8643;DHT22;4359;49.358;11.256;2022-07-09T00:00:07;13.50;99.90
8643;DHT22;4359;49.358;11.256;2022-07-09T00:02:32;13.40;99.90
8643;DHT22;4359;49.358;11.256;2022-07-09T00:05:00;13.30;99.90
8643;DHT22;4359;49.358;11.256;2022-07-09T00:07:25;13.40;99.90
8643;DHT22;4359;49.358;11.256;2022-07-09T00:09:52;13.30;99.90
8643;DHT22;4359;49.358;11.256;2022-07-09T00:12:18;13.20;99.90
8643;DHT22;4359;49.358;11.256;2022-07-09T00:14:44;13.10;99.90
8643;DHT22;4359;49.358;11.256;2022-07-09T00:17:09;13.00;99.90
8643;DHT22;4359;49.358;11.256;2022-07-09T00:19:35;13.00;99.90
8643;DHT22;4359;49.358;11.256;2022-07-09T00:22:01;13.00;99.90
8643;DHT22;4359;49.358;11.256;2022-07-09T00:24:27;13.00;99.90
8643;DHT22;4359;49.358;11.256;2022-07-09T00:26:52;12.90;99.90
8643;DHT22;4359;49.358;11.256;2022-07-09T00:29:18;12.90;99.90
8643;DHT22;4359;49.358;11.256;2022-07-09T00:31:43;12.80;99.90
8643;DHT22;4359;49.358;11.256;2022-07-09T00:34:11;12.80;99.90
8643;DHT22;4359;49.358;11.256;2022-07-09T00:36:37;12.70;99.90
8643;DHT22;4359;49.358;11.256;2022-07-09T00:39:03;12.60;99.90
8643;DHT22;4359;49.358;11.256;2022-07-09T00:41:29;12.60;99.90
8643;DHT22;4359;49.358;11.256;2022-07-09T00:43:55;12.50;99.90
8643;DHT22;4359;49.358;11.256;2022-07-09T00:46:21;12.40;99.90
8643;DHT22;4359;49.358;11.256;2022-07-09T00:48:47;12.30;99.90
8643;DHT22;4359;49.358;11.256;2022-07-09T00:51:14;12.30;99.90
8643;DHT22;4359;49.358;11.256;2022-07-09T00:53:42;12.30;99.90
8643;DHT22;4359;49.358;11.256;2022-07-09T00:56:08;12.20;99.90
8643;DHT22;4359;49.358;11.256;2022-07-09T00:58:35;12.10;99.90
8643;DHT22;4359;49.358;11.256;2022-07-09T01:01:02;11.90;99.90
8643;DHT22;4359;49.358;11.256;2022-07-09T01:03:28;11.80;99.90
8643;DHT22;4359;49.358;11.256;2022-07-09T01:05:53;11.60;99.90
8643;DHT22;4359;49.358;11.256;2022-07-09T01:08:21;11.50;99.90
8643;DHT22;4359;49.358;11.256;2022-07-09T01:10:48;11.30;99.90
8643;DHT22;4359;49.358;11.256;2022-07-09T01:13:16;11.20;99.90
8643;DHT22;4359;49.358;11.256;2022-07-09T01:15:42;11.10;99.90
8643;DHT22;4359;49.358;11.256;2022-07-09T01:18:12;11.10;99.90
8643;DHT22;4359;49.358;11.256;2022-07-09T01:20:37;11.00;99.90
8643;DHT22;4359;49.358;11.256;2022-07-09T01:23:03;10.90;99.90
8643;DHT22;4359;49.358;11.256;2022-07-09T01:25:42;10.80;99.90
8643;DHT22;4359;49.358;11.256;2022-07-09T01:28:11;10.70;99.90
8643;DHT22;4359;49.358;11.256;2022-07-09T01:30:39;10.60;99.90
8643;DHT22;4359;49.358;11.256;2022-07-09T01:33:06;10.60;99.90
8643;DHT22;4359;49.358;11.256;2022-07-09T01:35:32;10.60;99.90
8643;DHT22;4359;49.358;11.256;2022-07-09T01:37:57;10.50;99.90
8643;DHT22;4359;49.358;11.256;2022-07-09T01:40:24;10.50;99.90
8643;DHT22;4359;49.358;11.256;2022-07-09T01:42:50;10.40;99.90
8643;DHT22;4359;49.358;11.256;2022-07-09T01:45:16;10.30;99.90
8643;DHT22;4359;49.358;11.256;2022-07-09T01:47:42;10.30;99.90
8643;DHT22;4359;49.358;11.256;2022-07-09T01:50:09;10.20;99.90
8643;DHT22;4359;49.358;11.256;2022-07-09T01:52:36;10.30;99.90
8643;DHT22;4359;49.358;11.256;2022-07-09T01:55:02;10.30;99.90
8643;DHT22;4359;49.358;11.256;2022-07-09T01:57:28;10.40;99.90
8643;DHT22;4359;49.358;11.256;2022-07-09T01:59:54;10.50;99.90
8643;DHT22;4359;49.358;11.256;2022-07-09T02:02:20;10.60;99.90
8643;DHT22;4359;49.358;11.256;2022-07-09T02:04:46;10.60;99.90
8643;DHT22;4359;49.358;11.256;2022-07-09T02:07:12;10.60;99.90
8643;DHT22;4359;49.358;11.256;2022-07-09T02:09:39;10.60;99.90
8643;DHT22;4359;49.358;11.256;2022-07-09T02:12:05;10.70;99.90
8643;DHT22;4359;49.358;11.256;2022-07-09T02:14:31;10.60;99.90
8643;DHT22;4359;49.358;11.256;2022-07-09T02:16:57;10.60;99.90
8643;DHT22;4359;49.358;11.256;2022-07-09T02:19:23;10.60;99.90
8643;DHT22;4359;49.358;11.256;2022-07-09T02:21:48;10.60;99.90
8643;DHT22;4359;49.358;11.256;2022-07-09T02:24:14;10.70;99.90
8643;DHT22;4359;49.358;11.256;2022-07-09T02:26:40;10.70;99.90
8643;DHT22;4359;49.358;11.256;2022-07-09T02:29:06;10.70;99.90
8643;DHT22;4359;49.358;11.256;2022-07-09T02:31:32;10.80;99.90
8643;DHT22;4359;49.358;11.256;2022-07-09T02:33:57;10.80;99.90
8643;DHT22;4359;49.358;11.256;2022-07-09T02:36:23;10.80;99.90
8643;DHT22;4359;49.358;11.256;2022-07-09T02:38:49;10.80;99.90
8643;DHT22;4359;49.358;11.256;2022-07-09T02:41:15;10.80;99.90
8643;DHT22;4359;49.358;11.256;2022-07-09T02:43:41;10.80;99.90
8643;DHT22;4359;49.358;11.256;2022-07-09T02:46:10;10.90;99.90
8643;DHT22;4359;49.358;11.256;2022-07-09T02:48:36;10.90;99.90
8643;DHT22;4359;49.358;11.256;2022-07-09T02:51:01;10.80;99.90
8643;DHT22;4359;49.358;11.256;2022-07-09T02:53:27;10.80;99.90
8643;DHT22;4359;49.358;11.256;2022-07-09T02:55:53;10.90;99.90
8643;DHT22;4359;49.358;11.256;2022-07-09T02:58:18;10.90;99.90
8643;DHT22;4359;49.358;11.256;2022-07-09T03:00:44;10.90;99.90
8643;DHT22;4359;49.358;11.256;2022-07-09T03:03:10;11.00;99.90
8643;DHT22;4359;49.358;11.256;2022-07-09T03:05:35;11.10;99.90
8643;DHT22;4359;49.358;11.256;2022-07-09T03:08:02;11.10;99.90
8643;DHT22;4359;49.358;11.256;2022-07-09T03:10:27;11.10;99.90
8643;DHT22;4359;49.358;11.256;2022-07-09T03:12:53;11.00;99.90
8643;DHT22;4359;49.358;11.256;2022-07-09T03:15:19;11.00;99.90
8643;DHT22;4359;49.358;11.256;2022-07-09T03:17:46;11.00;99.90
8643;DHT22;4359;49.358;11.256;2022-07-09T03:20:13;10.90;99.90
8643;DHT22;4359;49.358;11.256;2022-07-09T03:22:39;11.00;99.90
8643;DHT22;4359;49.358;11.256;2022-07-09T03:25:06;11.00;99.90
8643;DHT22;4359;49.358;11.256;2022-07-09T03:27:32;11.00;99.90
8643;DHT22;4359;49.358;11.256;2022-07-09T03:29:59;11.10;99.90
8643;DHT22;4359;49.358;11.256;2022-07-09T03:32:25;11.10;99.90
8643;DHT22;4359;49.358;11.256;2022-07-09T03:34:50;11.10;99.90
8643;DHT22;4359;49.358;11.256;2022-07-09T03:37:18;11.10;99.90
8643;DHT22;4359;49.358;11.256;2022-07-09T03:39:44;11.10;99.90
8643;DHT22;4359;49.358;11.256;2022-07-09T03:42:11;11.10;99.90
8643;DHT22;4359;49.358;11.256;2022-07-09T03:44:37;11.20;99.90
8643;DHT22;4359;49.358;11.256;2022-07-09T03:47:03;11.20;99.90
8643;DHT22;4359;49.358;11.256;2022-07-09T03:49:29;11.30;99.90
8643;DHT22;4359;49.358;11.256;2022-07-09T03:51:55;11.30;99.90
8643;DHT22;4359;49.358;11.256;2022-07-09T03:54:20;11.30;99.90
8643;DHT22;4359;49.358;11.256;2022-07-09T03:56:46;11.40;99.90
8643;DHT22;4359;49.358;11.256;2022-07-09T03:59:12;11.50;99.90
8643;DHT22;4359;49.358;11.256;2022-07-09T04:01:37;11.50;99.90
8643;DHT22;4359;49.358;11.256;2022-07-09T04:04:04;11.60;99.90
8643;DHT22;4359;49.358;11.256;2022-07-09T04:06:30;11.60;99.90
8643;DHT22;4359;49.358;11.256;2022-07-09T04:08:56;11.70;99.90
8643;DHT22;4359;49.358;11.256;2022-07-09T04:11:22;11.80;99.90
8643;DHT22;4359;49.358;11.256;2022-07-09T04:13:48;11.80;99.90
8643;DHT22;4359;49.358;11.256;2022-07-09T04:16:14;11.90;99.90
8643;DHT22;4359;49.358;11.256;2022-07-09T04:18:40;12.00;99.90
8643;DHT22;4359;49.358;11.256;2022-07-09T04:21:09;12.10;99.90
8643;DHT22;4359;49.358;11.256;2022-07-09T04:23:35;12.00;99.90
8643;DHT22;4359;49.358;11.256;2022-07-09T04:26:01;12.20;99.90
8643;DHT22;4359;49.358;11.256;2022-07-09T04:28:26;12.30;99.90
8643;DHT22;4359;49.358;11.256;2022-07-09T04:30:52;12.40;99.90
8643;DHT22;4359;49.358;11.256;2022-07-09T04:33:18;12.50;99.90
8643;DHT22;4359;49.358;11.256;2022-07-09T04:35:44;12.60;99.90
8643;DHT22;4359;49.358;11.256;2022-07-09T04:38:11;12.60;99.90
8643;DHT22;4359;49.358;11.256;2022-07-09T04:40:37;12.70;99.90
8643;DHT22;4359;49.358;11.256;2022-07-09T04:43:04;12.80;99.90
8643;DHT22;4359;49.358;11.256;2022-07-09T04:45:30;12.80;99.90
8643;DHT22;4359;49.358;11.256;2022-07-09T04:47:58;12.80;99.90
8643;DHT22;4359;49.358;11.256;2022-07-09T04:50:24;12.80;99.90
8643;DHT22;4359;49.358;11.256;2022-07-09T04:52:50;12.90;99.90
8643;DHT22;4359;49.358;11.256;2022-07-09T04:55:16;13.10;99.90
8643;DHT22;4359;49.358;11.256;2022-07-09T04:57:43;13.20;99.90
8643;DHT22;4359;49.358;11.256;2022-07-09T05:00:09;13.30;99.90
8643;DHT22;4359;49.358;11.256;2022-07-09T05:02:37;13.50;99.90
8643;DHT22;4359;49.358;11.256;2022-07-09T05:05:02;13.60;99.90
8643;DHT22;4359;49.358;11.256;2022-07-09T05:07:30;13.80;99.90
8643;DHT22;4359;49.358;11.256;2022-07-09T05:09:56;13.90;99.90
8643;DHT22;4359;49.358;11.256;2022-07-09T05:12:22;13.90;99.90
8643;DHT22;4359;49.358;11.256;2022-07-09T05:14:48;14.00;99.90
8643;DHT22;4359;49.358;11.256;2022-07-09T05:17:14;14.20;99.90
8643;DHT22;4359;49.358;11.256;2022-07-09T05:19:40;14.30;99.90
8643;DHT22;4359;49.358;11.256;2022-07-09T05:22:06;14.40;99.90
8643;DHT22;4359;49.358;11.256;2022-07-09T05:24:31;14.50;99.90
8643;DHT22;4359;49.358;11.256;2022-07-09T05:26:57;14.70;99.90
8643;DHT22;4359;49.358;11.256;2022-07-09T05:29:23;14.80;99.90
8643;DHT22;4359;49.358;11.256;2022-07-09T05:31:50;15.00;99.90
8643;DHT22;4359;49.358;11.256;2022-07-09T05:34:16;15.10;99.90
8643;DHT22;4359;49.358;11.256;2022-07-09T05:36:42;15.00;99.90
8643;DHT22;4359;49.358;11.256;2022-07-09T05:39:08;15.10;99.90
8643;DHT22;4359;49.358;11.256;2022-07-09T05:41:34;15.20;99.90
8643;DHT22;4359;49.358;11.256;2022-07-09T05:44:00;15.20;99.90
8643;DHT22;4359;49.358;11.256;2022-07-09T05:46:29;15.40;99.90
8643;DHT22;4359;49.358;11.256;2022-07-09T05:48:55;15.90;99.90
8643;DHT22;4359;49.358;11.256;2022-07-09T05:51:21;16.20;99.90
8643;DHT22;4359;49.358;11.256;2022-07-09T05:53:48;16.40;99.90
8643;DHT22;4359;49.358;11.256;2022-07-09T05:56:13;16.30;99.90
8643;DHT22;4359;49.358;11.256;2022-07-09T05:58:39;16.40;99.90
8643;DHT22;4359;49.358;11.256;2022-07-09T06:01:05;16.70;99.90
8643;DHT22;4359;49.358;11.256;2022-07-09T06:03:32;16.70;99.90
8643;DHT22;4359;49.358;11.256;2022-07-09T06:05:58;16.90;99.90
8643;DHT22;4359;49.358;11.256;2022-07-09T06:08:24;17.10;99.90
8643;DHT22;4359;49.358;11.256;2022-07-09T06:10:50;17.20;99.90
8643;DHT22;4359;49.358;11.256;2022-07-09T06:13:16;17.20;99.90
8643;DHT22;4359;49.358;11.256;2022-07-09T06:15:41;17.20;99.90
8643;DHT22;4359;49.358;11.256;2022-07-09T06:18:07;17.40;99.90
8643;DHT22;4359;49.358;11.256;2022-07-09T06:20:33;17.50;99.90
8643;DHT22;4359;49.358;11.256;2022-07-09T06:22:59;17.70;99.90
8643;DHT22;4359;49.358;11.256;2022-07-09T06:25:24;18.10;99.90
8643;DHT22;4359;49.358;11.256;2022-07-09T06:27:50;18.60;99.90
8643;DHT22;4359;49.358;11.256;2022-07-09T06:30:16;18.80;99.90
8643;DHT22;4359;49.358;11.256;2022-07-09T06:32:43;18.90;99.90
8643;DHT22;4359;49.358;11.256;2022-07-09T06:35:09;19.10;99.90
8643;DHT22;4359;49.358;11.256;2022-07-09T06:37:34;18.80;99.90
8643;DHT22;4359;49.358;11.256;2022-07-09T06:40:00;18.70;99.90
8643;DHT22;4359;49.358;11.256;2022-07-09T06:42:25;18.60;99.90
8643;DHT22;4359;49.358;11.256;2022-07-09T06:44:52;18.50;99.90
8643;DHT22;4359;49.358;11.256;2022-07-09T06:47:17;18.30;99.90
8643;DHT22;4359;49.358;11.256;2022-07-09T06:49:43;18.30;99.90
8643;DHT22;4359;49.358;11.256;2022-07-09T06:52:09;18.40;99.90
8643;DHT22;4359;49.358;11.256;2022-07-09T06:54:35;18.60;99.90
8643;DHT22;4359;49.358;11.256;2022-07-09T06:57:02;18.80;99.90
8643;DHT22;4359;49.358;11.256;2022-07-09T06:59:28;19.00;99.90
8643;DHT22;4359;49.358;11.256;2022-07-09T07:01:54;19.10;99.90
8643;DHT22;4359;49.358;11.256;2022-07-09T07:04:20;19.20;99.90
8643;DHT22;4359;49.358;11.256;2022-07-09T07:06:46;19.50;99.90
8643;DHT22;4359;49.358;11.256;2022-07-09T07:09:14;19.80;99.90
8643;DHT22;4359;49.358;11.256;2022-07-09T07:11:40;19.80;99.90
8643;DHT22;4359;49.358;11.256;2022-07-09T07:14:06;20.00;99.90
8643;DHT22;4359;49.358;11.256;2022-07-09T07:16:32;20.30;99.90
8643;DHT22;4359;49.358;11.256;2022-07-09T07:18:57;20.60;99.90
8643;DHT22;4359;49.358;11.256;2022-07-09T07:21:23;20.70;99.90
8643;DHT22;4359;49.358;11.256;2022-07-09T07:23:49;21.00;99.90
8643;DHT22;4359;49.358;11.256;2022-07-09T07:26:14;21.10;99.90
8643;DHT22;4359;49.358;11.256;2022-07-09T07:28:40;20.90;99.90
8643;DHT22;4359;49.358;11.256;2022-07-09T07:31:05;20.80;99.90
8643;DHT22;4359;49.358;11.256;2022-07-09T07:33:31;20.80;99.90
8643;DHT22;4359;49.358;11.256;2022-07-09T07:35:57;20.90;99.90
8643;DHT22;4359;49.358;11.256;2022-07-09T07:38:22;20.80;99.90
8643;DHT22;4359;49.358;11.256;2022-07-09T07:40:53;20.70;99.90
8643;DHT22;4359;49.358;11.256;2022-07-09T07:43:19;20.70;99.90
8643;DHT22;4359;49.358;11.256;2022-07-09T07:45:45;20.90;99.90
8643;DHT22;4359;49.358;11.256;2022-07-09T07:48:10;20.70;99.90
8643;DHT22;4359;49.358;11.256;2022-07-09T07:50:36;20.70;99.90
8643;DHT22;4359;49.358;11.256;2022-07-09T07:53:05;20.70;99.90
8643;DHT22;4359;49.358;11.256;2022-07-09T07:55:30;20.90;99.90
8643;DHT22;4359;49.358;11.256;2022-07-09T07:57:56;21.00;99.90
8643;DHT22;4359;49.358;11.256;2022-07-09T08:00:22;21.20;99.90
8643;DHT22;4359;49.358;11.256;2022-07-09T08:02:48;21.70;99.90
8643;DHT22;4359;49.358;11.256;2022-07-09T08:05:13;22.40;99.90
8643;DHT22;4359;49.358;11.256;2022-07-09T08:07:39;22.50;99.90
8643;DHT22;4359;49.358;11.256;2022-07-09T08:10:05;22.80;99.90
8643;DHT22;4359;49.358;11.256;2022-07-09T08:12:31;23.10;99.90
8643;DHT22;4359;49.358;11.256;2022-07-09T08:14:57;23.30;99.90
8643;DHT22;4359;49.358;11.256;2022-07-09T08:17:22;23.40;99.90
8643;DHT22;4359;49.358;11.256;2022-07-09T08:19:48;23.40;99.90
8643;DHT22;4359;49.358;11.256;2022-07-09T08:22:14;23.00;99.90
8643;DHT22;4359;49.358;11.256;2022-07-09T08:24:39;22.70;99.90
8643;DHT22;4359;49.358;11.256;2022-07-09T08:27:05;23.10;99.90
8643;DHT22;4359;49.358;11.256;2022-07-09T08:29:31;23.70;99.90
8643;DHT22;4359;49.358;11.256;2022-07-09T08:31:56;24.10;99.90
8643;DHT22;4359;49.358;11.256;2022-07-09T08:34:22;24.50;99.90
8643;DHT22;4359;49.358;11.256;2022-07-09T08:36:48;23.90;99.90
8643;DHT22;4359;49.358;11.256;2022-07-09T08:39:13;24.10;99.90
8643;DHT22;4359;49.358;11.256;2022-07-09T08:41:39;23.50;99.90
8643;DHT22;4359;49.358;11.256;2022-07-09T08:44:05;23.40;99.90
8643;DHT22;4359;49.358;11.256;2022-07-09T08:46:35;23.50;99.90
8643;DHT22;4359;49.358;11.256;2022-07-09T08:49:01;23.80;99.90
8643;DHT22;4359;49.358;11.256;2022-07-09T08:51:30;24.20;99.90
8643;DHT22;4359;49.358;11.256;2022-07-09T08:53:55;24.10;99.90
8643;DHT22;4359;49.358;11.256;2022-07-09T08:56:21;24.10;99.90
8643;DHT22;4359;49.358;11.256;2022-07-09T08:58:47;24.30;99.90
8643;DHT22;4359;49.358;11.256;2022-07-09T09:01:16;24.10;99.90
8643;DHT22;4359;49.358;11.256;2022-07-09T09:03:43;23.90;99.90
8643;DHT22;4359;49.358;11.256;2022-07-09T09:06:11;23.70;99.90
8643;DHT22;4359;49.358;11.256;2022-07-09T09:08:43;23.40;99.90
8643;DHT22;4359;49.358;11.256;2022-07-09T09:13:44;24.00;99.90
8643;DHT22;4359;49.358;11.256;2022-07-09T09:16:11;24.00;99.90
8643;DHT22;4359;49.358;11.256;2022-07-09T09:18:45;24.60;99.90
8643;DHT22;4359;49.358;11.256;2022-07-09T09:21:12;25.50;99.90
8643;DHT22;4359;49.358;11.256;2022-07-09T09:26:17;26.50;99.90
8643;DHT22;4359;49.358;11.256;2022-07-09T09:31:24;26.30;99.90
8643;DHT22;4359;49.358;11.256;2022-07-09T09:33:54;25.00;99.90
8643;DHT22;4359;49.358;11.256;2022-07-09T09:36:35;24.10;99.90
8643;DHT22;4359;49.358;11.256;2022-07-09T09:41:53;23.60;99.90
8643;DHT22;4359;49.358;11.256;2022-07-09T09:44:32;23.70;99.90
8643;DHT22;4359;49.358;11.256;2022-07-09T09:47:03;23.70;99.90
8643;DHT22;4359;49.358;11.256;2022-07-09T09:49:29;23.70;99.90
8643;DHT22;4359;49.358;11.256;2022-07-09T09:54:32;23.80;99.90
8643;DHT22;4359;49.358;11.256;2022-07-09T09:56:59;23.20;99.90
8643;DHT22;4359;49.358;11.256;2022-07-09T09:59:25;22.80;99.90
8643;DHT22;4359;49.358;11.256;2022-07-09T10:01:51;22.70;99.90
8643;DHT22;4359;49.358;11.256;2022-07-09T10:04:17;22.50;99.90
8643;DHT22;4359;49.358;11.256;2022-07-09T10:06:44;22.40;99.90
8643;DHT22;4359;49.358;11.256;2022-07-09T10:09:14;22.20;99.90
8643;DHT22;4359;49.358;11.256;2022-07-09T10:16:50;21.10;99.90
8643;DHT22;4359;49.358;11.256;2022-07-09T10:19:29;20.90;99.90
8643;DHT22;4359;49.358;11.256;2022-07-09T10:21:57;20.70;99.90
8643;DHT22;4359;49.358;11.256;2022-07-09T10:24:31;20.60;99.90
8643;DHT22;4359;49.358;11.256;2022-07-09T10:27:15;20.70;99.90
8643;DHT22;4359;49.358;11.256;2022-07-09T10:29:57;20.80;99.90
8643;DHT22;4359;49.358;11.256;2022-07-09T10:32:29;20.80;99.90
8643;DHT22;4359;49.358;11.256;2022-07-09T10:34:59;20.90;99.90
8643;DHT22;4359;49.358;11.256;2022-07-09T10:37:43;21.10;99.90
8643;DHT22;4359;49.358;11.256;2022-07-09T10:40:15;21.30;99.90
8643;DHT22;4359;49.358;11.256;2022-07-09T10:42:44;21.40;99.90
8643;DHT22;4359;49.358;11.256;2022-07-09T10:45:26;21.80;99.90
8643;DHT22;4359;49.358;11.256;2022-07-09T10:47:59;22.30;99.90
8643;DHT22;4359;49.358;11.256;2022-07-09T10:50:29;22.80;99.90
8643;DHT22;4359;49.358;11.256;2022-07-09T10:52:56;23.00;99.90
8643;DHT22;4359;49.358;11.256;2022-07-09T10:55:24;23.40;99.90
8643;DHT22;4359;49.358;11.256;2022-07-09T10:57:51;23.70;99.90
8643;DHT22;4359;49.358;11.256;2022-07-09T11:00:18;24.10;99.90
8643;DHT22;4359;49.358;11.256;2022-07-09T11:02:57;24.60;99.90
8643;DHT22;4359;49.358;11.256;2022-07-09T11:05:25;25.00;99.90
8643;DHT22;4359;49.358;11.256;2022-07-09T11:08:01;25.20;99.90
8643;DHT22;4359;49.358;11.256;2022-07-09T11:10:28;24.80;99.90
8643;DHT22;4359;49.358;11.256;2022-07-09T11:12:56;24.50;99.90
8643;DHT22;4359;49.358;11.256;2022-07-09T11:15:24;24.10;99.90
8643;DHT22;4359;49.358;11.256;2022-07-09T11:20:26;22.70;99.90
8643;DHT22;4359;49.358;11.256;2022-07-09T11:22:51;22.30;99.90
8643;DHT22;4359;49.358;11.256;2022-07-09T11:25:18;22.00;99.90
8643;DHT22;4359;49.358;11.256;2022-07-09T11:27:44;21.80;99.90
8643;DHT22;4359;49.358;11.256;2022-07-09T11:30:16;21.40;99.90
8643;DHT22;4359;49.358;11.256;2022-07-09T11:32:43;21.30;99.90
8643;DHT22;4359;49.358;11.256;2022-07-09T11:35:10;21.10;99.90
8643;DHT22;4359;49.358;11.256;2022-07-09T11:37:36;20.80;99.90
8643;DHT22;4359;49.358;11.256;2022-07-09T11:40:03;20.70;99.90
8643;DHT22;4359;49.358;11.256;2022-07-09T11:42:28;20.60;99.90
8643;DHT22;4359;49.358;11.256;2022-07-09T11:44:56;20.60;99.90
8643;DHT22;4359;49.358;11.256;2022-07-09T11:47:40;20.80;99.90
8643;DHT22;4359;49.358;11.256;2022-07-09T11:50:14;21.00;99.90
8643;DHT22;4359;49.358;11.256;2022-07-09T11:52:50;21.10;99.90
8643;DHT22;4359;49.358;11.256;2022-07-09T11:55:17;21.10;99.90
8643;DHT22;4359;49.358;11.256;2022-07-09T11:57:59;21.10;99.90
8643;DHT22;4359;49.358;11.256;2022-07-09T12:00:29;21.40;99.90
8643;DHT22;4359;49.358;11.256;2022-07-09T12:02:57;21.70;99.90
8643;DHT22;4359;49.358;11.256;2022-07-09T12:05:35;21.90;99.90
8643;DHT22;4359;49.358;11.256;2022-07-09T12:08:07;22.20;99.90
8643;DHT22;4359;49.358;11.256;2022-07-09T12:10:35;22.70;99.90
8643;DHT22;4359;49.358;11.256;2022-07-09T12:13:03;22.80;99.90
8643;DHT22;4359;49.358;11.256;2022-07-09T12:15:29;22.70;99.90
8643;DHT22;4359;49.358;11.256;2022-07-09T12:17:56;22.90;99.90
8643;DHT22;4359;49.358;11.256;2022-07-09T12:20:24;22.60;99.90
8643;DHT22;4359;49.358;11.256;2022-07-09T12:22:50;22.70;99.90
8643;DHT22;4359;49.358;11.256;2022-07-09T12:25:16;22.80;99.90
8643;DHT22;4359;49.358;11.256;2022-07-09T12:27:42;23.00;99.90
8643;DHT22;4359;49.358;11.256;2022-07-09T12:30:08;23.00;99.90
8643;DHT22;4359;49.358;11.256;2022-07-09T12:32:34;22.80;99.90
8643;DHT22;4359;49.358;11.256;2022-07-09T12:35:01;23.00;99.90
8643;DHT22;4359;49.358;11.256;2022-07-09T12:37:27;23.20;99.90
8643;DHT22;4359;49.358;11.256;2022-07-09T12:39:53;23.20;99.90
8643;DHT22;4359;49.358;11.256;2022-07-09T12:42:20;22.90;99.90
8643;DHT22;4359;49.358;11.256;2022-07-09T12:44:47;22.50;99.90
8643;DHT22;4359;49.358;11.256;2022-07-09T12:47:13;22.20;99.90
8643;DHT22;4359;49.358;11.256;2022-07-09T12:49:39;22.10;99.90
8643;DHT22;4359;49.358;11.256;2022-07-09T12:52:05;22.20;99.90
8643;DHT22;4359;49.358;11.256;2022-07-09T12:54:31;23.00;99.90
8643;DHT22;4359;49.358;11.256;2022-07-09T12:56:58;24.40;99.90
8643;DHT22;4359;49.358;11.256;2022-07-09T12:59:24;25.70;99.90
8643;DHT22;4359;49.358;11.256;2022-07-09T13:01:50;26.30;99.90
8643;DHT22;4359;49.358;11.256;2022-07-09T13:04:16;26.30;99.90
8643;DHT22;4359;49.358;11.256;2022-07-09T13:06:42;26.00;99.90
8643;DHT22;4359;49.358;11.256;2022-07-09T13:09:09;25.90;99.90
8643;DHT22;4359;49.358;11.256;2022-07-09T13:11:36;25.60;99.90
8643;DHT22;4359;49.358;11.256;2022-07-09T13:14:02;25.50;99.90
8643;DHT22;4359;49.358;11.256;2022-07-09T13:16:28;24.70;99.90
8643;DHT22;4359;49.358;11.256;2022-07-09T13:18:54;24.50;99.90
8643;DHT22;4359;49.358;11.256;2022-07-09T13:21:21;24.10;99.90
8643;DHT22;4359;49.358;11.256;2022-07-09T13:23:47;23.60;99.90
8643;DHT22;4359;49.358;11.256;2022-07-09T13:26:14;23.40;99.90
8643;DHT22;4359;49.358;11.256;2022-07-09T13:28:40;23.20;99.90
8643;DHT22;4359;49.358;11.256;2022-07-09T13:31:06;23.60;99.90
8643;DHT22;4359;49.358;11.256;2022-07-09T13:33:33;23.90;99.90
8643;DHT22;4359;49.358;11.256;2022-07-09T13:36:03;24.60;99.90
8643;DHT22;4359;49.358;11.256;2022-07-09T13:38:29;24.80;99.90
8643;DHT22;4359;49.358;11.256;2022-07-09T13:40:55;25.30;99.90
8643;DHT22;4359;49.358;11.256;2022-07-09T13:43:21;24.90;99.90
8643;DHT22;4359;49.358;11.256;2022-07-09T13:45:49;24.80;99.90
8643;DHT22;4359;49.358;11.256;2022-07-09T13:48:16;24.90;99.90
8643;DHT22;4359;49.358;11.256;2022-07-09T13:50:41;24.90;99.90
8643;DHT22;4359;49.358;11.256;2022-07-09T13:53:07;24.90;99.90
8643;DHT22;4359;49.358;11.256;2022-07-09T13:55:33;24.70;99.90
8643;DHT22;4359;49.358;11.256;2022-07-09T13:57:58;24.50;99.90
8643;DHT22;4359;49.358;11.256;2022-07-09T14:00:24;24.60;99.90
8643;DHT22;4359;49.358;11.256;2022-07-09T14:02:50;24.90;99.90
8643;DHT22;4359;49.358;11.256;2022-07-09T14:05:16;24.80;99.90
8643;DHT22;4359;49.358;11.256;2022-07-09T14:07:41;25.10;99.90
8643;DHT22;4359;49.358;11.256;2022-07-09T14:10:07;25.00;99.90
8643;DHT22;4359;49.358;11.256;2022-07-09T14:12:33;24.50;99.90
8643;DHT22;4359;49.358;11.256;2022-07-09T14:14:59;24.50;99.90
8643;DHT22;4359;49.358;11.256;2022-07-09T14:17:26;24.10;99.90
8643;DHT22;4359;49.358;11.256;2022-07-09T14:19:52;24.40;99.90
8643;DHT22;4359;49.358;11.256;2022-07-09T14:22:18;24.70;99.90
8643;DHT22;4359;49.358;11.256;2022-07-09T14:24:44;24.60;99.90
8643;DHT22;4359;49.358;11.256;2022-07-09T14:27:12;24.40;99.90
8643;DHT22;4359;49.358;11.256;2022-07-09T14:29:38;24.20;99.90
8643;DHT22;4359;49.358;11.256;2022-07-09T14:32:04;24.30;99.90
8643;DHT22;4359;49.358;11.256;2022-07-09T14:34:33;24.30;99.90
8643;DHT22;4359;49.358;11.256;2022-07-09T14:36:59;24.10;99.90
8643;DHT22;4359;49.358;11.256;2022-07-09T14:39:25;24.10;99.90
8643;DHT22;4359;49.358;11.256;2022-07-09T14:41:51;24.20;99.90
8643;DHT22;4359;49.358;11.256;2022-07-09T14:44:17;24.20;99.90
8643;DHT22;4359;49.358;11.256;2022-07-09T14:46:42;24.20;99.90
8643;DHT22;4359;49.358;11.256;2022-07-09T14:49:08;24.10;99.90
8643;DHT22;4359;49.358;11.256;2022-07-09T14:51:36;23.70;99.90
8643;DHT22;4359;49.358;11.256;2022-07-09T14:54:02;23.40;99.90
8643;DHT22;4359;49.358;11.256;2022-07-09T14:56:28;23.20;99.90
8643;DHT22;4359;49.358;11.256;2022-07-09T14:58:54;23.20;99.90
8643;DHT22;4359;49.358;11.256;2022-07-09T15:01:20;23.20;99.90
8643;DHT22;4359;49.358;11.256;2022-07-09T15:03:46;23.10;99.90
8643;DHT22;4359;49.358;11.256;2022-07-09T15:06:12;23.10;99.90
8643;DHT22;4359;49.358;11.256;2022-07-09T15:08:37;23.00;99.90
8643;DHT22;4359;49.358;11.256;2022-07-09T15:11:03;23.00;99.90
8643;DHT22;4359;49.358;11.256;2022-07-09T15:13:29;23.00;99.90
8643;DHT22;4359;49.358;11.256;2022-07-09T15:15:56;22.80;99.90
8643;DHT22;4359;49.358;11.256;2022-07-09T15:18:22;22.90;99.90
8643;DHT22;4359;49.358;11.256;2022-07-09T15:20:48;22.80;99.90
8643;DHT22;4359;49.358;11.256;2022-07-09T15:23:14;22.70;99.90
8643;DHT22;4359;49.358;11.256;2022-07-09T15:25:39;22.50;99.90
8643;DHT22;4359;49.358;11.256;2022-07-09T15:28:05;22.30;99.90
8643;DHT22;4359;49.358;11.256;2022-07-09T15:30:32;22.30;99.90
8643;DHT22;4359;49.358;11.256;2022-07-09T15:32:58;22.00;99.90
8643;DHT22;4359;49.358;11.256;2022-07-09T15:35:24;22.00;99.90
8643;DHT22;4359;49.358;11.256;2022-07-09T15:37:50;21.80;99.90
8643;DHT22;4359;49.358;11.256;2022-07-09T15:40:16;21.70;99.90
8643;DHT22;4359;49.358;11.256;2022-07-09T15:42:45;21.50;99.90
8643;DHT22;4359;49.358;11.256;2022-07-09T15:45:12;21.40;99.90
8643;DHT22;4359;49.358;11.256;2022-07-09T15:47:39;21.60;99.90
8643;DHT22;4359;49.358;11.256;2022-07-09T15:50:06;21.70;99.90
8643;DHT22;4359;49.358;11.256;2022-07-09T15:52:36;21.80;99.90
8643;DHT22;4359;49.358;11.256;2022-07-09T15:55:05;21.80;99.90
8643;DHT22;4359;49.358;11.256;2022-07-09T15:57:31;21.90;99.90
8643;DHT22;4359;49.358;11.256;2022-07-09T15:59:56;22.10;99.90
8643;DHT22;4359;49.358;11.256;2022-07-09T16:02:22;22.40;99.90